sensor_id;sensor_type;location;lat;lon;timestamp;P1;durP1;ratioP1;P2;durP2;ratioP2
44430;SDS011;30135;47.866;-4.222;2024-01-16T00:02:00;5.22;;;1.10;;
44430;SDS011;30135;47.866;-4.222;2024-01-16T00:04:27;3.88;;;1.38;;
44430;SDS011;30135;47.866;-4.222;2024-01-16T00:06:55;5.32;;;1.10;;
44430;SDS011;30135;47.866;-4.222;2024-01-16T00:09:21;3.33;;;1.17;;
44430;SDS011;30135;47.866;-4.222;2024-01-16T00:11:47;9.05;;;2.08;;
44430;SDS011;30135;47.866;-4.222;2024-01-16T00:14:12;4.95;;;1.50;;
44430;SDS011;30135;47.866;-4.222;2024-01-16T00:16:42;6.22;;;1.45;;
44430;SDS011;30135;47.866;-4.222;2024-01-16T00:19:09;13.15;;;1.25;;
44430;SDS011;30135;47.866;-4.222;2024-01-16T00:21:40;4.80;;;1.45;;
44430;SDS011;30135;47.866;-4.222;2024-01-16T00:24:07;6.47;;;1.25;;
44430;SDS011;30135;47.866;-4.222;2024-01-16T00:26:33;4.47;;;1.17;;
44430;SDS011;30135;47.866;-4.222;2024-01-16T00:28:59;4.30;;;1.05;;
44430;SDS011;30135;47.866;-4.222;2024-01-16T00:31:26;5.20;;;1.52;;
44430;SDS011;30135;47.866;-4.222;2024-01-16T00:33:52;10.35;;;2.00;;
44430;SDS011;30135;47.866;-4.222;2024-01-16T00:36:18;1.85;;;0.80;;
44430;SDS011;30135;47.866;-4.222;2024-01-16T00:38:44;3.50;;;1.08;;
44430;SDS011;30135;47.866;-4.222;2024-01-16T00:41:11;3.78;;;1.15;;
44430;SDS011;30135;47.866;-4.222;2024-01-16T00:43:40;3.43;;;1.23;;
44430;SDS011;30135;47.866;-4.222;2024-01-16T00:46:07;6.22;;;1.27;;
44430;SDS011;30135;47.866;-4.222;2024-01-16T00:48:34;2.10;;;0.85;;
44430;SDS011;30135;47.866;-4.222;2024-01-16T00:50:59;3.75;;;1.98;;
44430;SDS011;30135;47.866;-4.222;2024-01-16T00:53:26;4.55;;;1.30;;
44430;SDS011;30135;47.866;-4.222;2024-01-16T00:55:52;6.80;;;1.33;;
44430;SDS011;30135;47.866;-4.222;2024-01-16T00:58:22;3.45;;;1.33;;
44430;SDS011;30135;47.866;-4.222;2024-01-16T01:00:49;3.35;;;0.88;;
44430;SDS011;30135;47.866;-4.222;2024-01-16T01:03:15;2.97;;;0.98;;
44430;SDS011;30135;47.866;-4.222;2024-01-16T01:05:41;4.72;;;1.00;;
44430;SDS011;30135;47.866;-4.222;2024-01-16T01:08:07;6.97;;;1.58;;
44430;SDS011;30135;47.866;-4.222;2024-01-16T01:10:33;2.40;;;0.70;;
44430;SDS011;30135;47.866;-4.222;2024-01-16T01:12:59;3.15;;;0.90;;
44430;SDS011;30135;47.866;-4.222;2024-01-16T01:15:26;7.22;;;1.13;;
44430;SDS011;30135;47.866;-4.222;2024-01-16T01:17:51;6.65;;;1.65;;
44430;SDS011;30135;47.866;-4.222;2024-01-16T01:20:19;6.22;;;0.90;;
44430;SDS011;30135;47.866;-4.222;2024-01-16T01:22:45;7.57;;;1.80;;
44430;SDS011;30135;47.866;-4.222;2024-01-16T01:25:11;1.38;;;0.95;;
44430;SDS011;30135;47.866;-4.222;2024-01-16T01:27:38;8.82;;;1.00;;
44430;SDS011;30135;47.866;-4.222;2024-01-16T01:30:05;5.55;;;1.15;;
44430;SDS011;30135;47.866;-4.222;2024-01-16T01:32:36;2.20;;;0.65;;
44430;SDS011;30135;47.866;-4.222;2024-01-16T01:35:03;2.97;;;1.10;;
44430;SDS011;30135;47.866;-4.222;2024-01-16T01:37:30;4.75;;;1.52;;
44430;SDS011;30135;47.866;-4.222;2024-01-16T01:39:56;2.47;;;0.80;;
44430;SDS011;30135;47.866;-4.222;2024-01-16T01:42:22;7.53;;;2.40;;
44430;SDS011;30135;47.866;-4.222;2024-01-16T01:44:48;2.47;;;0.88;;
44430;SDS011;30135;47.866;-4.222;2024-01-16T01:47:14;2.63;;;0.90;;
44430;SDS011;30135;47.866;-4.222;2024-01-16T01:49:40;3.58;;;1.25;;
44430;SDS011;30135;47.866;-4.222;2024-01-16T01:52:06;3.92;;;0.90;;
44430;SDS011;30135;47.866;-4.222;2024-01-16T01:54:34;2.17;;;0.80;;
44430;SDS011;30135;47.866;-4.222;2024-01-16T01:57:02;4.97;;;1.05;;
44430;SDS011;30135;47.866;-4.222;2024-01-16T01:59:29;5.75;;;1.48;;
44430;SDS011;30135;47.866;-4.222;2024-01-16T02:01:56;3.28;;;0.65;;
44430;SDS011;30135;47.866;-4.222;2024-01-16T02:04:22;2.90;;;1.17;;
44430;SDS011;30135;47.866;-4.222;2024-01-16T02:06:51;1.60;;;0.55;;
44430;SDS011;30135;47.866;-4.222;2024-01-16T02:09:18;2.25;;;0.90;;
44430;SDS011;30135;47.866;-4.222;2024-01-16T02:11:45;4.13;;;0.82;;
44430;SDS011;30135;47.866;-4.222;2024-01-16T02:14:11;2.38;;;1.00;;
44430;SDS011;30135;47.866;-4.222;2024-01-16T02:16:40;3.53;;;1.25;;
44430;SDS011;30135;47.866;-4.222;2024-01-16T02:19:09;9.80;;;1.02;;
44430;SDS011;30135;47.866;-4.222;2024-01-16T02:21:39;3.80;;;0.82;;
44430;SDS011;30135;47.866;-4.222;2024-01-16T02:24:15;5.57;;;0.90;;
44430;SDS011;30135;47.866;-4.222;2024-01-16T02:26:42;1.65;;;0.80;;
44430;SDS011;30135;47.866;-4.222;2024-01-16T02:29:09;2.30;;;1.40;;
44430;SDS011;30135;47.866;-4.222;2024-01-16T02:31:35;2.47;;;0.80;;
44430;SDS011;30135;47.866;-4.222;2024-01-16T02:34:01;5.82;;;0.90;;
44430;SDS011;30135;47.866;-4.222;2024-01-16T02:36:29;2.40;;;0.68;;
44430;SDS011;30135;47.866;-4.222;2024-01-16T02:38:55;6.90;;;0.70;;
44430;SDS011;30135;47.866;-4.222;2024-01-16T02:41:21;4.55;;;1.08;;
44430;SDS011;30135;47.866;-4.222;2024-01-16T02:43:47;5.97;;;1.00;;
44430;SDS011;30135;47.866;-4.222;2024-01-16T02:46:14;3.63;;;0.77;;
44430;SDS011;30135;47.866;-4.222;2024-01-16T02:48:40;6.82;;;0.63;;
44430;SDS011;30135;47.866;-4.222;2024-01-16T02:51:09;3.53;;;1.13;;
44430;SDS011;30135;47.866;-4.222;2024-01-16T02:53:35;6.07;;;0.85;;
44430;SDS011;30135;47.866;-4.222;2024-01-16T02:56:01;5.75;;;0.50;;
44430;SDS011;30135;47.866;-4.222;2024-01-16T02:58:27;2.20;;;1.00;;
44430;SDS011;30135;47.866;-4.222;2024-01-16T03:00:54;9.02;;;0.80;;
44430;SDS011;30135;47.866;-4.222;2024-01-16T03:03:20;7.32;;;0.75;;
44430;SDS011;30135;47.866;-4.222;2024-01-16T03:05:47;4.20;;;0.75;;
44430;SDS011;30135;47.866;-4.222;2024-01-16T03:08:13;2.38;;;0.80;;
44430;SDS011;30135;47.866;-4.222;2024-01-16T03:10:39;3.15;;;0.77;;
44430;SDS011;30135;47.866;-4.222;2024-01-16T03:13:05;0.80;;;0.40;;
44430;SDS011;30135;47.866;-4.222;2024-01-16T03:15:31;3.55;;;0.88;;
44430;SDS011;30135;47.866;-4.222;2024-01-16T03:17:57;1.65;;;0.77;;
44430;SDS011;30135;47.866;-4.222;2024-01-16T03:20:25;5.63;;;0.55;;
44430;SDS011;30135;47.866;-4.222;2024-01-16T03:22:51;3.92;;;0.88;;
44430;SDS011;30135;47.866;-4.222;2024-01-16T03:25:18;5.13;;;0.93;;
44430;SDS011;30135;47.866;-4.222;2024-01-16T03:27:44;1.45;;;0.70;;
44430;SDS011;30135;47.866;-4.222;2024-01-16T03:30:10;1.20;;;0.50;;
44430;SDS011;30135;47.866;-4.222;2024-01-16T03:32:37;0.75;;;0.35;;
44430;SDS011;30135;47.866;-4.222;2024-01-16T03:35:04;1.30;;;0.75;;
44430;SDS011;30135;47.866;-4.222;2024-01-16T03:37:31;3.88;;;0.70;;
44430;SDS011;30135;47.866;-4.222;2024-01-16T03:39:58;5.35;;;0.80;;
44430;SDS011;30135;47.866;-4.222;2024-01-16T03:42:24;1.60;;;0.52;;
44430;SDS011;30135;47.866;-4.222;2024-01-16T03:44:50;3.35;;;0.80;;
44430;SDS011;30135;47.866;-4.222;2024-01-16T03:47:16;3.53;;;0.70;;
44430;SDS011;30135;47.866;-4.222;2024-01-16T03:49:43;1.73;;;0.70;;
44430;SDS011;30135;47.866;-4.222;2024-01-16T03:52:09;3.75;;;0.50;;
44430;SDS011;30135;47.866;-4.222;2024-01-16T03:54:35;1.60;;;0.60;;
44430;SDS011;30135;47.866;-4.222;2024-01-16T03:57:01;1.70;;;0.50;;
44430;SDS011;30135;47.866;-4.222;2024-01-16T03:59:27;9.02;;;0.40;;
44430;SDS011;30135;47.866;-4.222;2024-01-16T04:01:53;2.00;;;0.70;;
44430;SDS011;30135;47.866;-4.222;2024-01-16T04:04:19;1.65;;;0.38;;
44430;SDS011;30135;47.866;-4.222;2024-01-16T04:06:45;2.50;;;0.55;;
44430;SDS011;30135;47.866;-4.222;2024-01-16T04:09:18;1.65;;;0.52;;
44430;SDS011;30135;47.866;-4.222;2024-01-16T04:11:45;4.38;;;0.70;;
44430;SDS011;30135;47.866;-4.222;2024-01-16T04:14:12;4.65;;;0.82;;
44430;SDS011;30135;47.866;-4.222;2024-01-16T04:16:38;2.63;;;0.65;;
44430;SDS011;30135;47.866;-4.222;2024-01-16T04:19:04;7.80;;;0.70;;
44430;SDS011;30135;47.866;-4.222;2024-01-16T04:21:30;1.50;;;0.55;;
44430;SDS011;30135;47.866;-4.222;2024-01-16T04:23:55;7.18;;;0.88;;
44430;SDS011;30135;47.866;-4.222;2024-01-16T04:26:21;2.90;;;0.52;;
44430;SDS011;30135;47.866;-4.222;2024-01-16T04:28:48;1.90;;;0.70;;
44430;SDS011;30135;47.866;-4.222;2024-01-16T04:31:14;1.33;;;0.32;;
44430;SDS011;30135;47.866;-4.222;2024-01-16T04:33:42;4.20;;;0.60;;
44430;SDS011;30135;47.866;-4.222;2024-01-16T04:36:08;1.20;;;0.45;;
44430;SDS011;30135;47.866;-4.222;2024-01-16T04:38:35;1.45;;;0.52;;
44430;SDS011;30135;47.866;-4.222;2024-01-16T04:41:01;3.33;;;0.57;;
44430;SDS011;30135;47.866;-4.222;2024-01-16T04:43:28;4.57;;;0.47;;
44430;SDS011;30135;47.866;-4.222;2024-01-16T04:45:54;3.95;;;0.57;;
44430;SDS011;30135;47.866;-4.222;2024-01-16T04:48:20;2.92;;;0.50;;
44430;SDS011;30135;47.866;-4.222;2024-01-16T04:50:46;3.30;;;0.55;;
44430;SDS011;30135;47.866;-4.222;2024-01-16T04:53:12;2.25;;;0.40;;
44430;SDS011;30135;47.866;-4.222;2024-01-16T04:55:38;1.45;;;0.40;;
44430;SDS011;30135;47.866;-4.222;2024-01-16T04:58:04;1.58;;;1.23;;
44430;SDS011;30135;47.866;-4.222;2024-01-16T05:00:31;4.47;;;0.40;;
44430;SDS011;30135;47.866;-4.222;2024-01-16T05:02:57;7.35;;;0.80;;
44430;SDS011;30135;47.866;-4.222;2024-01-16T05:05:23;1.33;;;0.40;;
44430;SDS011;30135;47.866;-4.222;2024-01-16T05:07:49;2.58;;;0.63;;
44430;SDS011;30135;47.866;-4.222;2024-01-16T05:10:16;1.50;;;0.77;;
44430;SDS011;30135;47.866;-4.222;2024-01-16T05:12:42;2.67;;;0.85;;
44430;SDS011;30135;47.866;-4.222;2024-01-16T05:15:08;4.03;;;0.73;;
44430;SDS011;30135;47.866;-4.222;2024-01-16T05:17:36;3.40;;;0.68;;
44430;SDS011;30135;47.866;-4.222;2024-01-16T05:20:03;5.78;;;1.10;;
44430;SDS011;30135;47.866;-4.222;2024-01-16T05:22:30;7.22;;;0.70;;
44430;SDS011;30135;47.866;-4.222;2024-01-16T05:24:56;3.03;;;0.65;;
44430;SDS011;30135;47.866;-4.222;2024-01-16T05:27:22;3.55;;;0.60;;
44430;SDS011;30135;47.866;-4.222;2024-01-16T05:29:48;3.60;;;1.00;;
44430;SDS011;30135;47.866;-4.222;2024-01-16T05:32:14;1.48;;;0.82;;
44430;SDS011;30135;47.866;-4.222;2024-01-16T05:34:40;2.22;;;1.50;;
44430;SDS011;30135;47.866;-4.222;2024-01-16T05:37:05;3.80;;;0.70;;
44430;SDS011;30135;47.866;-4.222;2024-01-16T05:39:31;4.47;;;0.90;;
44430;SDS011;30135;47.866;-4.222;2024-01-16T05:41:57;3.60;;;0.85;;
44430;SDS011;30135;47.866;-4.222;2024-01-16T05:44:24;2.75;;;0.70;;
44430;SDS011;30135;47.866;-4.222;2024-01-16T05:46:50;2.83;;;0.80;;
44430;SDS011;30135;47.866;-4.222;2024-01-16T05:49:16;5.63;;;0.98;;
44430;SDS011;30135;47.866;-4.222;2024-01-16T05:51:42;8.60;;;1.05;;
44430;SDS011;30135;47.866;-4.222;2024-01-16T05:54:08;2.10;;;0.95;;
44430;SDS011;30135;47.866;-4.222;2024-01-16T05:56:33;8.10;;;1.20;;
44430;SDS011;30135;47.866;-4.222;2024-01-16T05:58:59;2.35;;;0.63;;
44430;SDS011;30135;47.866;-4.222;2024-01-16T06:01:25;2.47;;;0.88;;
44430;SDS011;30135;47.866;-4.222;2024-01-16T06:03:52;2.40;;;1.15;;
44430;SDS011;30135;47.866;-4.222;2024-01-16T06:06:21;2.70;;;1.10;;
44430;SDS011;30135;47.866;-4.222;2024-01-16T06:08:47;5.07;;;1.15;;
44430;SDS011;30135;47.866;-4.222;2024-01-16T06:11:13;3.10;;;1.10;;
44430;SDS011;30135;47.866;-4.222;2024-01-16T06:13:39;2.75;;;0.60;;
44430;SDS011;30135;47.866;-4.222;2024-01-16T06:16:08;4.32;;;1.00;;
44430;SDS011;30135;47.866;-4.222;2024-01-16T06:18:35;6.53;;;0.73;;
44430;SDS011;30135;47.866;-4.222;2024-01-16T06:21:03;3.30;;;0.90;;
44430;SDS011;30135;47.866;-4.222;2024-01-16T06:23:29;1.90;;;0.95;;
44430;SDS011;30135;47.866;-4.222;2024-01-16T06:25:55;5.60;;;0.60;;
44430;SDS011;30135;47.866;-4.222;2024-01-16T06:28:21;1.48;;;0.70;;
44430;SDS011;30135;47.866;-4.222;2024-01-16T06:30:47;7.10;;;0.75;;
44430;SDS011;30135;47.866;-4.222;2024-01-16T06:33:13;2.47;;;0.57;;
44430;SDS011;30135;47.866;-4.222;2024-01-16T06:35:39;4.90;;;1.15;;
44430;SDS011;30135;47.866;-4.222;2024-01-16T06:38:05;2.75;;;0.77;;
44430;SDS011;30135;47.866;-4.222;2024-01-16T06:40:31;1.27;;;0.47;;
44430;SDS011;30135;47.866;-4.222;2024-01-16T06:42:57;6.70;;;1.00;;
44430;SDS011;30135;47.866;-4.222;2024-01-16T06:45:23;6.88;;;1.25;;
44430;SDS011;30135;47.866;-4.222;2024-01-16T06:47:51;4.38;;;0.82;;
44430;SDS011;30135;47.866;-4.222;2024-01-16T06:50:17;2.95;;;0.77;;
44430;SDS011;30135;47.866;-4.222;2024-01-16T06:52:43;4.47;;;0.88;;
44430;SDS011;30135;47.866;-4.222;2024-01-16T06:55:09;2.72;;;0.45;;
44430;SDS011;30135;47.866;-4.222;2024-01-16T06:57:34;1.38;;;0.52;;
44430;SDS011;30135;47.866;-4.222;2024-01-16T07:00:00;4.22;;;0.90;;
44430;SDS011;30135;47.866;-4.222;2024-01-16T07:02:26;4.97;;;1.13;;
44430;SDS011;30135;47.866;-4.222;2024-01-16T07:04:52;3.60;;;0.70;;
44430;SDS011;30135;47.866;-4.222;2024-01-16T07:07:18;4.05;;;1.05;;
44430;SDS011;30135;47.866;-4.222;2024-01-16T07:09:45;4.47;;;0.90;;
44430;SDS011;30135;47.866;-4.222;2024-01-16T07:12:11;3.67;;;0.80;;
44430;SDS011;30135;47.866;-4.222;2024-01-16T07:14:38;4.00;;;1.15;;
44430;SDS011;30135;47.866;-4.222;2024-01-16T07:17:05;2.85;;;0.82;;
44430;SDS011;30135;47.866;-4.222;2024-01-16T07:19:32;8.90;;;0.88;;
44430;SDS011;30135;47.866;-4.222;2024-01-16T07:21:58;2.83;;;0.85;;
44430;SDS011;30135;47.866;-4.222;2024-01-16T07:24:24;7.72;;;0.95;;
44430;SDS011;30135;47.866;-4.222;2024-01-16T07:26:50;1.35;;;0.70;;
44430;SDS011;30135;47.866;-4.222;2024-01-16T07:29:16;4.60;;;1.20;;
44430;SDS011;30135;47.866;-4.222;2024-01-16T07:31:43;5.68;;;2.55;;
44430;SDS011;30135;47.866;-4.222;2024-01-16T07:34:09;1.75;;;0.82;;
44430;SDS011;30135;47.866;-4.222;2024-01-16T07:36:36;5.90;;;0.85;;
44430;SDS011;30135;47.866;-4.222;2024-01-16T07:39:01;1.42;;;0.80;;
44430;SDS011;30135;47.866;-4.222;2024-01-16T07:41:28;5.13;;;1.30;;
44430;SDS011;30135;47.866;-4.222;2024-01-16T07:43:54;4.70;;;1.10;;
44430;SDS011;30135;47.866;-4.222;2024-01-16T07:46:20;2.55;;;0.82;;
44430;SDS011;30135;47.866;-4.222;2024-01-16T07:48:46;5.93;;;0.93;;
44430;SDS011;30135;47.866;-4.222;2024-01-16T07:51:12;3.13;;;1.02;;
44430;SDS011;30135;47.866;-4.222;2024-01-16T07:53:38;2.03;;;0.93;;
44430;SDS011;30135;47.866;-4.222;2024-01-16T07:56:04;4.15;;;1.05;;
44430;SDS011;30135;47.866;-4.222;2024-01-16T07:58:30;4.50;;;1.30;;
44430;SDS011;30135;47.866;-4.222;2024-01-16T08:00:56;3.47;;;1.48;;
44430;SDS011;30135;47.866;-4.222;2024-01-16T08:03:22;5.57;;;1.77;;
44430;SDS011;30135;47.866;-4.222;2024-01-16T08:05:48;4.45;;;1.70;;
44430;SDS011;30135;47.866;-4.222;2024-01-16T08:08:13;6.63;;;1.40;;
44430;SDS011;30135;47.866;-4.222;2024-01-16T08:10:42;12.77;;;1.48;;
44430;SDS011;30135;47.866;-4.222;2024-01-16T08:13:08;3.75;;;1.42;;
44430;SDS011;30135;47.866;-4.222;2024-01-16T08:15:34;3.35;;;1.05;;
44430;SDS011;30135;47.866;-4.222;2024-01-16T08:18:00;2.67;;;1.20;;
44430;SDS011;30135;47.866;-4.222;2024-01-16T08:20:26;4.57;;;1.58;;
44430;SDS011;30135;47.866;-4.222;2024-01-16T08:22:53;4.97;;;1.58;;
44430;SDS011;30135;47.866;-4.222;2024-01-16T08:25:19;3.50;;;1.90;;
44430;SDS011;30135;47.866;-4.222;2024-01-16T08:27:45;7.88;;;1.60;;
44430;SDS011;30135;47.866;-4.222;2024-01-16T08:30:11;10.50;;;1.92;;
44430;SDS011;30135;47.866;-4.222;2024-01-16T08:32:37;7.80;;;1.42;;
44430;SDS011;30135;47.866;-4.222;2024-01-16T08:35:03;6.80;;;1.70;;
44430;SDS011;30135;47.866;-4.222;2024-01-16T08:37:31;4.43;;;1.52;;
44430;SDS011;30135;47.866;-4.222;2024-01-16T08:40:00;8.40;;;1.83;;
44430;SDS011;30135;47.866;-4.222;2024-01-16T08:42:28;5.80;;;1.75;;
44430;SDS011;30135;47.866;-4.222;2024-01-16T08:44:55;10.20;;;1.27;;
44430;SDS011;30135;47.866;-4.222;2024-01-16T08:47:21;4.95;;;1.75;;
44430;SDS011;30135;47.866;-4.222;2024-01-16T08:49:47;1.52;;;1.00;;
44430;SDS011;30135;47.866;-4.222;2024-01-16T08:52:13;7.65;;;1.50;;
44430;SDS011;30135;47.866;-4.222;2024-01-16T08:54:40;3.65;;;1.08;;
44430;SDS011;30135;47.866;-4.222;2024-01-16T08:57:06;3.20;;;1.67;;
44430;SDS011;30135;47.866;-4.222;2024-01-16T08:59:35;7.93;;;1.40;;
44430;SDS011;30135;47.866;-4.222;2024-01-16T09:02:01;3.70;;;1.88;;
44430;SDS011;30135;47.866;-4.222;2024-01-16T09:04:28;4.68;;;1.60;;
44430;SDS011;30135;47.866;-4.222;2024-01-16T09:06:54;5.05;;;1.25;;
44430;SDS011;30135;47.866;-4.222;2024-01-16T09:09:20;4.38;;;1.65;;
44430;SDS011;30135;47.866;-4.222;2024-01-16T09:11:46;8.80;;;1.58;;
44430;SDS011;30135;47.866;-4.222;2024-01-16T09:14:12;2.58;;;1.27;;
44430;SDS011;30135;47.866;-4.222;2024-01-16T09:16:39;4.85;;;1.27;;
44430;SDS011;30135;47.866;-4.222;2024-01-16T09:19:05;4.47;;;1.00;;
44430;SDS011;30135;47.866;-4.222;2024-01-16T09:21:31;5.43;;;1.67;;
44430;SDS011;30135;47.866;-4.222;2024-01-16T09:23:57;13.73;;;1.90;;
44430;SDS011;30135;47.866;-4.222;2024-01-16T09:26:23;7.13;;;1.77;;
44430;SDS011;30135;47.866;-4.222;2024-01-16T09:28:49;12.63;;;2.83;;
44430;SDS011;30135;47.866;-4.222;2024-01-16T09:31:15;4.78;;;1.65;;
44430;SDS011;30135;47.866;-4.222;2024-01-16T09:33:41;9.35;;;1.77;;
44430;SDS011;30135;47.866;-4.222;2024-01-16T09:36:08;6.15;;;2.10;;
44430;SDS011;30135;47.866;-4.222;2024-01-16T09:38:34;11.23;;;1.90;;
44430;SDS011;30135;47.866;-4.222;2024-01-16T09:41:00;5.35;;;1.33;;
44430;SDS011;30135;47.866;-4.222;2024-01-16T09:43:28;4.68;;;1.42;;
44430;SDS011;30135;47.866;-4.222;2024-01-16T09:45:59;2.88;;;1.48;;
44430;SDS011;30135;47.866;-4.222;2024-01-16T09:48:28;3.53;;;1.33;;
44430;SDS011;30135;47.866;-4.222;2024-01-16T09:50:55;6.95;;;1.70;;
44430;SDS011;30135;47.866;-4.222;2024-01-16T09:53:21;5.32;;;2.35;;
44430;SDS011;30135;47.866;-4.222;2024-01-16T09:55:48;3.72;;;1.38;;
44430;SDS011;30135;47.866;-4.222;2024-01-16T09:58:16;2.80;;;1.40;;
44430;SDS011;30135;47.866;-4.222;2024-01-16T10:00:44;4.63;;;1.45;;
44430;SDS011;30135;47.866;-4.222;2024-01-16T10:03:12;6.07;;;1.45;;
44430;SDS011;30135;47.866;-4.222;2024-01-16T10:05:40;5.32;;;1.40;;
44430;SDS011;30135;47.866;-4.222;2024-01-16T10:08:07;4.35;;;1.52;;
44430;SDS011;30135;47.866;-4.222;2024-01-16T10:10:34;4.80;;;1.55;;
44430;SDS011;30135;47.866;-4.222;2024-01-16T10:13:00;5.32;;;2.10;;
44430;SDS011;30135;47.866;-4.222;2024-01-16T10:15:26;6.82;;;1.67;;
44430;SDS011;30135;47.866;-4.222;2024-01-16T10:17:52;6.07;;;1.85;;
44430;SDS011;30135;47.866;-4.222;2024-01-16T10:20:18;7.18;;;1.70;;
44430;SDS011;30135;47.866;-4.222;2024-01-16T10:22:59;2.88;;;1.10;;
44430;SDS011;30135;47.866;-4.222;2024-01-16T10:25:25;5.60;;;1.73;;
44430;SDS011;30135;47.866;-4.222;2024-01-16T10:28:04;7.88;;;1.55;;
44430;SDS011;30135;47.866;-4.222;2024-01-16T10:30:33;5.97;;;1.98;;
44430;SDS011;30135;47.866;-4.222;2024-01-16T10:33:14;8.20;;;1.35;;
44430;SDS011;30135;47.866;-4.222;2024-01-16T10:35:41;7.43;;;2.17;;
44430;SDS011;30135;47.866;-4.222;2024-01-16T10:38:07;4.18;;;1.90;;
44430;SDS011;30135;47.866;-4.222;2024-01-16T10:40:33;9.57;;;1.52;;
44430;SDS011;30135;47.866;-4.222;2024-01-16T10:43:00;5.22;;;1.80;;
44430;SDS011;30135;47.866;-4.222;2024-01-16T10:45:30;4.68;;;1.85;;
44430;SDS011;30135;47.866;-4.222;2024-01-16T10:48:07;9.82;;;1.52;;
44430;SDS011;30135;47.866;-4.222;2024-01-16T10:50:34;5.18;;;1.27;;
44430;SDS011;30135;47.866;-4.222;2024-01-16T10:53:03;5.30;;;1.52;;
44430;SDS011;30135;47.866;-4.222;2024-01-16T10:55:31;4.20;;;2.25;;
44430;SDS011;30135;47.866;-4.222;2024-01-16T10:58:22;3.97;;;1.77;;
44430;SDS011;30135;47.866;-4.222;2024-01-16T11:00:50;5.32;;;1.90;;
44430;SDS011;30135;47.866;-4.222;2024-01-16T11:03:18;6.57;;;1.60;;
44430;SDS011;30135;47.866;-4.222;2024-01-16T11:06:00;10.35;;;2.08;;
44430;SDS011;30135;47.866;-4.222;2024-01-16T11:08:28;3.90;;;2.15;;
44430;SDS011;30135;47.866;-4.222;2024-01-16T11:11:01;3.10;;;1.67;;
44430;SDS011;30135;47.866;-4.222;2024-01-16T11:13:29;8.20;;;2.08;;
44430;SDS011;30135;47.866;-4.222;2024-01-16T11:16:00;5.20;;;1.38;;
44430;SDS011;30135;47.866;-4.222;2024-01-16T11:20:57;7.45;;;1.77;;
44430;SDS011;30135;47.866;-4.222;2024-01-16T11:23:30;3.17;;;1.65;;
44430;SDS011;30135;47.866;-4.222;2024-01-16T11:25:56;8.52;;;2.10;;
44430;SDS011;30135;47.866;-4.222;2024-01-16T11:28:26;7.85;;;2.20;;
44430;SDS011;30135;47.866;-4.222;2024-01-16T11:30:56;4.65;;;2.10;;
44430;SDS011;30135;47.866;-4.222;2024-01-16T11:35:57;10.68;;;2.95;;
44430;SDS011;30135;47.866;-4.222;2024-01-16T11:38:23;4.55;;;1.65;;
44430;SDS011;30135;47.866;-4.222;2024-01-16T11:40:54;12.90;;;2.35;;
44430;SDS011;30135;47.866;-4.222;2024-01-16T11:46:00;8.93;;;1.92;;
44430;SDS011;30135;47.866;-4.222;2024-01-16T11:48:31;7.65;;;1.60;;
44430;SDS011;30135;47.866;-4.222;2024-01-16T11:50:57;6.05;;;1.35;;
44430;SDS011;30135;47.866;-4.222;2024-01-16T11:53:33;2.85;;;1.58;;
44430;SDS011;30135;47.866;-4.222;2024-01-16T12:01:45;8.27;;;2.42;;
44430;SDS011;30135;47.866;-4.222;2024-01-16T12:04:16;9.23;;;2.35;;
44430;SDS011;30135;47.866;-4.222;2024-01-16T12:06:44;8.35;;;1.52;;
44430;SDS011;30135;47.866;-4.222;2024-01-16T12:09:25;7.03;;;1.63;;
44430;SDS011;30135;47.866;-4.222;2024-01-16T12:11:59;7.43;;;1.35;;
44430;SDS011;30135;47.866;-4.222;2024-01-16T12:14:27;3.22;;;1.50;;
44430;SDS011;30135;47.866;-4.222;2024-01-16T12:17:15;7.45;;;1.80;;
44430;SDS011;30135;47.866;-4.222;2024-01-16T12:19:41;5.85;;;1.08;;
44430;SDS011;30135;47.866;-4.222;2024-01-16T12:22:08;6.90;;;1.95;;
44430;SDS011;30135;47.866;-4.222;2024-01-16T12:24:38;8.75;;;1.52;;
44430;SDS011;30135;47.866;-4.222;2024-01-16T12:27:04;6.93;;;1.73;;
44430;SDS011;30135;47.866;-4.222;2024-01-16T12:29:31;7.82;;;1.20;;
44430;SDS011;30135;47.866;-4.222;2024-01-16T12:32:12;7.38;;;1.33;;
44430;SDS011;30135;47.866;-4.222;2024-01-16T12:34:44;5.07;;;1.20;;
44430;SDS011;30135;47.866;-4.222;2024-01-16T12:37:12;5.50;;;1.40;;
44430;SDS011;30135;47.866;-4.222;2024-01-16T12:39:42;5.28;;;1.30;;
44430;SDS011;30135;47.866;-4.222;2024-01-16T12:42:09;4.47;;;1.10;;
44430;SDS011;30135;47.866;-4.222;2024-01-16T12:44:36;5.20;;;1.20;;
44430;SDS011;30135;47.866;-4.222;2024-01-16T12:47:02;5.28;;;1.10;;
44430;SDS011;30135;47.866;-4.222;2024-01-16T12:49:28;3.40;;;1.45;;
44430;SDS011;30135;47.866;-4.222;2024-01-16T12:52:17;5.07;;;1.15;;
44430;SDS011;30135;47.866;-4.222;2024-01-16T12:54:57;2.22;;;1.08;;
44430;SDS011;30135;47.866;-4.222;2024-01-16T12:57:25;7.20;;;0.75;;
44430;SDS011;30135;47.866;-4.222;2024-01-16T12:59:52;4.03;;;1.15;;
44430;SDS011;30135;47.866;-4.222;2024-01-16T13:02:24;2.28;;;1.02;;
44430;SDS011;30135;47.866;-4.222;2024-01-16T13:04:57;7.05;;;1.38;;
44430;SDS011;30135;47.866;-4.222;2024-01-16T13:07:29;4.00;;;1.45;;
44430;SDS011;30135;47.866;-4.222;2024-01-16T13:10:10;2.07;;;0.80;;
44430;SDS011;30135;47.866;-4.222;2024-01-16T13:12:51;10.30;;;1.05;;
44430;SDS011;30135;47.866;-4.222;2024-01-16T13:15:23;3.63;;;1.17;;
44430;SDS011;30135;47.866;-4.222;2024-01-16T13:17:49;3.00;;;1.50;;
44430;SDS011;30135;47.866;-4.222;2024-01-16T13:20:15;2.88;;;1.48;;
44430;SDS011;30135;47.866;-4.222;2024-01-16T13:22:41;2.78;;;1.25;;
44430;SDS011;30135;47.866;-4.222;2024-01-16T13:25:07;6.75;;;1.73;;
44430;SDS011;30135;47.866;-4.222;2024-01-16T13:27:34;9.63;;;1.00;;
44430;SDS011;30135;47.866;-4.222;2024-01-16T13:29:59;5.82;;;1.27;;
44430;SDS011;30135;47.866;-4.222;2024-01-16T13:32:26;2.92;;;0.68;;
44430;SDS011;30135;47.866;-4.222;2024-01-16T13:34:53;2.88;;;0.95;;
44430;SDS011;30135;47.866;-4.222;2024-01-16T13:37:19;3.47;;;0.85;;
44430;SDS011;30135;47.866;-4.222;2024-01-16T13:39:47;5.30;;;0.90;;
44430;SDS011;30135;47.866;-4.222;2024-01-16T13:42:13;7.38;;;1.00;;
44430;SDS011;30135;47.866;-4.222;2024-01-16T13:44:43;2.20;;;1.10;;
44430;SDS011;30135;47.866;-4.222;2024-01-16T13:47:09;4.25;;;0.98;;
44430;SDS011;30135;47.866;-4.222;2024-01-16T13:49:35;5.15;;;1.60;;
44430;SDS011;30135;47.866;-4.222;2024-01-16T13:52:01;7.82;;;1.13;;
44430;SDS011;30135;47.866;-4.222;2024-01-16T13:54:28;2.72;;;0.80;;
44430;SDS011;30135;47.866;-4.222;2024-01-16T13:56:54;8.27;;;0.95;;
44430;SDS011;30135;47.866;-4.222;2024-01-16T13:59:20;5.47;;;0.88;;
44430;SDS011;30135;47.866;-4.222;2024-01-16T14:01:46;3.47;;;0.68;;
44430;SDS011;30135;47.866;-4.222;2024-01-16T14:04:11;4.20;;;0.77;;
44430;SDS011;30135;47.866;-4.222;2024-01-16T14:06:37;9.32;;;0.77;;
44430;SDS011;30135;47.866;-4.222;2024-01-16T14:09:03;5.05;;;1.00;;
44430;SDS011;30135;47.866;-4.222;2024-01-16T14:11:32;2.97;;;0.95;;
44430;SDS011;30135;47.866;-4.222;2024-01-16T14:13:58;2.33;;;0.95;;
44430;SDS011;30135;47.866;-4.222;2024-01-16T14:16:27;1.65;;;0.50;;
44430;SDS011;30135;47.866;-4.222;2024-01-16T14:18:54;2.38;;;1.27;;
44430;SDS011;30135;47.866;-4.222;2024-01-16T14:21:20;4.50;;;1.38;;
44430;SDS011;30135;47.866;-4.222;2024-01-16T14:23:45;4.28;;;1.67;;
44430;SDS011;30135;47.866;-4.222;2024-01-16T14:26:11;4.00;;;1.08;;
44430;SDS011;30135;47.866;-4.222;2024-01-16T14:28:37;1.42;;;0.65;;
44430;SDS011;30135;47.866;-4.222;2024-01-16T14:31:03;3.25;;;1.27;;
44430;SDS011;30135;47.866;-4.222;2024-01-16T14:33:29;4.70;;;1.83;;
44430;SDS011;30135;47.866;-4.222;2024-01-16T14:35:55;3.75;;;1.23;;
44430;SDS011;30135;47.866;-4.222;2024-01-16T14:38:21;4.60;;;1.50;;
44430;SDS011;30135;47.866;-4.222;2024-01-16T14:40:47;5.47;;;0.93;;
44430;SDS011;30135;47.866;-4.222;2024-01-16T14:43:13;3.47;;;1.15;;
44430;SDS011;30135;47.866;-4.222;2024-01-16T14:45:40;2.55;;;1.15;;
44430;SDS011;30135;47.866;-4.222;2024-01-16T14:48:06;3.10;;;0.77;;